sensor_id;sensor_type;location;lat;lon;timestamp;P1;durP1;ratioP1;P2;durP2;ratioP2
20478;SDS011;10398;52.490;13.434;2022-10-16T00:01:20;4.63;;;2.10;;
20478;SDS011;10398;52.490;13.434;2022-10-16T00:03:48;4.80;;;2.33;;
20478;SDS011;10398;52.490;13.434;2022-10-16T00:06:15;5.70;;;2.10;;
20478;SDS011;10398;52.490;13.434;2022-10-16T00:08:43;5.20;;;2.30;;
20478;SDS011;10398;52.490;13.434;2022-10-16T00:11:14;2.43;;;1.60;;
20478;SDS011;10398;52.490;13.434;2022-10-16T00:13:44;3.93;;;1.73;;
20478;SDS011;10398;52.490;13.434;2022-10-16T00:16:12;4.63;;;1.90;;
20478;SDS011;10398;52.490;13.434;2022-10-16T00:18:38;4.97;;;1.73;;
20478;SDS011;10398;52.490;13.434;2022-10-16T00:21:05;2.63;;;1.63;;
20478;SDS011;10398;52.490;13.434;2022-10-16T00:23:34;5.43;;;2.03;;
20478;SDS011;10398;52.490;13.434;2022-10-16T00:26:01;3.73;;;1.50;;
20478;SDS011;10398;52.490;13.434;2022-10-16T00:28:30;4.10;;;1.73;;
20478;SDS011;10398;52.490;13.434;2022-10-16T00:30:56;1.93;;;1.47;;
20478;SDS011;10398;52.490;13.434;2022-10-16T00:33:21;2.77;;;1.50;;
20478;SDS011;10398;52.490;13.434;2022-10-16T00:35:47;2.27;;;1.70;;
20478;SDS011;10398;52.490;13.434;2022-10-16T00:38:13;1.97;;;1.33;;
20478;SDS011;10398;52.490;13.434;2022-10-16T00:40:39;2.70;;;1.50;;
20478;SDS011;10398;52.490;13.434;2022-10-16T00:43:31;2.23;;;1.60;;
20478;SDS011;10398;52.490;13.434;2022-10-16T00:45:58;3.37;;;1.67;;
20478;SDS011;10398;52.490;13.434;2022-10-16T00:48:24;2.20;;;1.30;;
20478;SDS011;10398;52.490;13.434;2022-10-16T00:50:50;3.57;;;1.13;;
20478;SDS011;10398;52.490;13.434;2022-10-16T00:53:16;2.03;;;1.30;;
20478;SDS011;10398;52.490;13.434;2022-10-16T00:55:42;2.43;;;1.30;;
20478;SDS011;10398;52.490;13.434;2022-10-16T00:58:07;3.00;;;1.00;;
20478;SDS011;10398;52.490;13.434;2022-10-16T01:00:34;1.53;;;1.20;;
20478;SDS011;10398;52.490;13.434;2022-10-16T01:03:00;1.63;;;1.17;;
20478;SDS011;10398;52.490;13.434;2022-10-16T01:05:30;3.13;;;1.47;;
20478;SDS011;10398;52.490;13.434;2022-10-16T01:10:36;4.47;;;1.90;;
20478;SDS011;10398;52.490;13.434;2022-10-16T01:13:06;8.63;;;3.03;;
20478;SDS011;10398;52.490;13.434;2022-10-16T01:15:42;4.50;;;2.20;;
20478;SDS011;10398;52.490;13.434;2022-10-16T01:20:50;2.40;;;1.23;;
20478;SDS011;10398;52.490;13.434;2022-10-16T01:28:40;4.43;;;1.70;;
20478;SDS011;10398;52.490;13.434;2022-10-16T01:31:22;3.07;;;1.47;;
20478;SDS011;10398;52.490;13.434;2022-10-16T01:34:00;4.87;;;1.63;;
20478;SDS011;10398;52.490;13.434;2022-10-16T01:36:34;1.70;;;1.10;;
20478;SDS011;10398;52.490;13.434;2022-10-16T01:39:03;2.00;;;1.10;;
20478;SDS011;10398;52.490;13.434;2022-10-16T01:41:35;3.27;;;1.33;;
20478;SDS011;10398;52.490;13.434;2022-10-16T01:44:05;3.03;;;1.27;;
20478;SDS011;10398;52.490;13.434;2022-10-16T01:46:32;2.90;;;1.30;;
20478;SDS011;10398;52.490;13.434;2022-10-16T01:49:01;1.17;;;0.90;;
20478;SDS011;10398;52.490;13.434;2022-10-16T01:51:28;1.53;;;1.10;;
20478;SDS011;10398;52.490;13.434;2022-10-16T01:53:54;2.27;;;1.10;;
20478;SDS011;10398;52.490;13.434;2022-10-16T01:56:22;1.87;;;1.03;;
20478;SDS011;10398;52.490;13.434;2022-10-16T01:59:09;1.10;;;0.80;;
20478;SDS011;10398;52.490;13.434;2022-10-16T02:01:39;1.10;;;0.80;;
20478;SDS011;10398;52.490;13.434;2022-10-16T02:04:15;2.33;;;1.13;;
20478;SDS011;10398;52.490;13.434;2022-10-16T02:06:43;1.50;;;0.93;;
20478;SDS011;10398;52.490;13.434;2022-10-16T02:09:09;2.00;;;1.10;;
20478;SDS011;10398;52.490;13.434;2022-10-16T02:11:35;1.13;;;0.80;;
20478;SDS011;10398;52.490;13.434;2022-10-16T02:14:02;1.60;;;0.97;;
20478;SDS011;10398;52.490;13.434;2022-10-16T02:16:37;3.80;;;1.00;;
20478;SDS011;10398;52.490;13.434;2022-10-16T02:19:08;1.33;;;1.00;;
20478;SDS011;10398;52.490;13.434;2022-10-16T02:29:33;3.77;;;1.50;;
20478;SDS011;10398;52.490;13.434;2022-10-16T02:32:05;3.43;;;1.90;;
20478;SDS011;10398;52.490;13.434;2022-10-16T02:34:33;3.50;;;1.40;;
20478;SDS011;10398;52.490;13.434;2022-10-16T02:37:01;1.93;;;1.40;;
20478;SDS011;10398;52.490;13.434;2022-10-16T02:39:29;1.47;;;1.00;;
20478;SDS011;10398;52.490;13.434;2022-10-16T02:41:55;1.80;;;1.10;;
20478;SDS011;10398;52.490;13.434;2022-10-16T02:44:21;1.90;;;1.03;;
20478;SDS011;10398;52.490;13.434;2022-10-16T02:46:46;1.60;;;0.90;;
20478;SDS011;10398;52.490;13.434;2022-10-16T02:49:12;1.00;;;0.80;;
20478;SDS011;10398;52.490;13.434;2022-10-16T02:51:37;2.07;;;1.00;;
20478;SDS011;10398;52.490;13.434;2022-10-16T02:54:03;2.13;;;1.10;;
20478;SDS011;10398;52.490;13.434;2022-10-16T02:56:29;1.40;;;0.70;;
20478;SDS011;10398;52.490;13.434;2022-10-16T02:58:55;3.27;;;0.90;;
20478;SDS011;10398;52.490;13.434;2022-10-16T03:01:21;1.83;;;1.10;;
20478;SDS011;10398;52.490;13.434;2022-10-16T03:03:47;1.47;;;0.90;;
20478;SDS011;10398;52.490;13.434;2022-10-16T03:06:13;1.90;;;1.00;;
20478;SDS011;10398;52.490;13.434;2022-10-16T03:08:38;0.90;;;0.70;;
20478;SDS011;10398;52.490;13.434;2022-10-16T03:11:04;1.43;;;0.80;;
20478;SDS011;10398;52.490;13.434;2022-10-16T03:13:30;2.10;;;1.00;;
20478;SDS011;10398;52.490;13.434;2022-10-16T03:15:55;1.77;;;1.00;;
20478;SDS011;10398;52.490;13.434;2022-10-16T03:18:21;1.83;;;0.90;;
20478;SDS011;10398;52.490;13.434;2022-10-16T03:20:46;1.23;;;1.00;;
20478;SDS011;10398;52.490;13.434;2022-10-16T03:23:13;1.23;;;0.90;;
20478;SDS011;10398;52.490;13.434;2022-10-16T03:25:39;2.77;;;1.00;;
20478;SDS011;10398;52.490;13.434;2022-10-16T03:28:05;1.47;;;0.97;;
20478;SDS011;10398;52.490;13.434;2022-10-16T03:30:30;1.67;;;0.90;;
20478;SDS011;10398;52.490;13.434;2022-10-16T03:32:56;1.50;;;0.80;;
20478;SDS011;10398;52.490;13.434;2022-10-16T03:35:22;1.70;;;1.03;;
20478;SDS011;10398;52.490;13.434;2022-10-16T03:37:49;1.60;;;0.70;;
20478;SDS011;10398;52.490;13.434;2022-10-16T03:40:15;1.63;;;1.17;;
20478;SDS011;10398;52.490;13.434;2022-10-16T03:42:42;14.40;;;4.23;;
20478;SDS011;10398;52.490;13.434;2022-10-16T03:45:08;9.47;;;4.00;;
20478;SDS011;10398;52.490;13.434;2022-10-16T03:47:34;13.33;;;5.10;;
20478;SDS011;10398;52.490;13.434;2022-10-16T03:50:00;5.10;;;2.33;;
20478;SDS011;10398;52.490;13.434;2022-10-16T03:52:25;2.83;;;1.30;;
20478;SDS011;10398;52.490;13.434;2022-10-16T03:54:51;1.80;;;0.80;;
20478;SDS011;10398;52.490;13.434;2022-10-16T03:57:17;2.33;;;1.07;;
20478;SDS011;10398;52.490;13.434;2022-10-16T03:59:42;1.60;;;0.90;;
20478;SDS011;10398;52.490;13.434;2022-10-16T04:02:08;2.00;;;0.90;;
20478;SDS011;10398;52.490;13.434;2022-10-16T04:04:34;3.87;;;1.17;;
20478;SDS011;10398;52.490;13.434;2022-10-16T04:07:00;2.07;;;1.00;;
20478;SDS011;10398;52.490;13.434;2022-10-16T04:09:25;1.20;;;0.90;;
20478;SDS011;10398;52.490;13.434;2022-10-16T04:11:51;1.83;;;1.03;;
20478;SDS011;10398;52.490;13.434;2022-10-16T04:14:17;3.63;;;1.00;;
20478;SDS011;10398;52.490;13.434;2022-10-16T04:16:42;1.60;;;0.90;;
20478;SDS011;10398;52.490;13.434;2022-10-16T04:19:08;1.50;;;1.10;;
20478;SDS011;10398;52.490;13.434;2022-10-16T04:21:35;1.93;;;0.90;;
20478;SDS011;10398;52.490;13.434;2022-10-16T04:24:01;1.80;;;1.10;;
20478;SDS011;10398;52.490;13.434;2022-10-16T04:26:26;1.37;;;0.90;;
20478;SDS011;10398;52.490;13.434;2022-10-16T04:28:52;1.87;;;1.13;;
20478;SDS011;10398;52.490;13.434;2022-10-16T04:31:18;1.50;;;1.10;;
20478;SDS011;10398;52.490;13.434;2022-10-16T04:33:43;1.83;;;1.07;;
20478;SDS011;10398;52.490;13.434;2022-10-16T04:36:09;1.60;;;0.90;;
20478;SDS011;10398;52.490;13.434;2022-10-16T04:38:35;2.57;;;1.30;;
20478;SDS011;10398;52.490;13.434;2022-10-16T04:41:02;1.60;;;1.07;;
20478;SDS011;10398;52.490;13.434;2022-10-16T04:43:28;1.30;;;1.00;;
20478;SDS011;10398;52.490;13.434;2022-10-16T04:45:54;3.40;;;1.00;;
20478;SDS011;10398;52.490;13.434;2022-10-16T04:48:21;1.40;;;1.10;;
20478;SDS011;10398;52.490;13.434;2022-10-16T04:50:46;2.10;;;1.07;;
20478;SDS011;10398;52.490;13.434;2022-10-16T04:53:12;1.40;;;1.10;;
20478;SDS011;10398;52.490;13.434;2022-10-16T04:55:38;1.77;;;1.13;;
20478;SDS011;10398;52.490;13.434;2022-10-16T04:58:04;3.73;;;1.30;;
20478;SDS011;10398;52.490;13.434;2022-10-16T05:00:30;2.80;;;1.40;;
20478;SDS011;10398;52.490;13.434;2022-10-16T05:02:55;2.87;;;1.30;;
20478;SDS011;10398;52.490;13.434;2022-10-16T05:05:22;3.10;;;1.30;;
20478;SDS011;10398;52.490;13.434;2022-10-16T05:07:48;1.93;;;1.47;;
20478;SDS011;10398;52.490;13.434;2022-10-16T05:10:14;1.83;;;1.37;;
20478;SDS011;10398;52.490;13.434;2022-10-16T05:12:40;4.07;;;1.47;;
20478;SDS011;10398;52.490;13.434;2022-10-16T05:15:06;3.53;;;1.40;;
20478;SDS011;10398;52.490;13.434;2022-10-16T05:17:32;3.30;;;1.60;;
20478;SDS011;10398;52.490;13.434;2022-10-16T05:19:57;2.20;;;1.40;;
20478;SDS011;10398;52.490;13.434;2022-10-16T05:22:23;3.23;;;1.57;;
20478;SDS011;10398;52.490;13.434;2022-10-16T05:24:48;2.37;;;1.60;;
20478;SDS011;10398;52.490;13.434;2022-10-16T05:27:14;3.50;;;1.60;;
20478;SDS011;10398;52.490;13.434;2022-10-16T05:29:46;4.07;;;2.20;;
20478;SDS011;10398;52.490;13.434;2022-10-16T05:32:14;3.30;;;1.70;;
20478;SDS011;10398;52.490;13.434;2022-10-16T05:34:40;3.23;;;1.73;;
20478;SDS011;10398;52.490;13.434;2022-10-16T05:37:05;5.83;;;1.77;;
20478;SDS011;10398;52.490;13.434;2022-10-16T05:39:31;2.70;;;1.70;;
20478;SDS011;10398;52.490;13.434;2022-10-16T05:41:57;1.87;;;1.50;;
20478;SDS011;10398;52.490;13.434;2022-10-16T05:44:22;2.30;;;1.43;;
20478;SDS011;10398;52.490;13.434;2022-10-16T05:46:48;2.73;;;1.50;;
20478;SDS011;10398;52.490;13.434;2022-10-16T05:49:13;2.70;;;1.57;;
20478;SDS011;10398;52.490;13.434;2022-10-16T05:51:39;1.53;;;1.30;;
20478;SDS011;10398;52.490;13.434;2022-10-16T05:54:06;6.00;;;1.30;;
20478;SDS011;10398;52.490;13.434;2022-10-16T05:56:31;2.50;;;1.57;;
20478;SDS011;10398;52.490;13.434;2022-10-16T05:58:57;6.53;;;2.43;;
20478;SDS011;10398;52.490;13.434;2022-10-16T06:01:22;4.87;;;1.73;;
20478;SDS011;10398;52.490;13.434;2022-10-16T06:03:49;2.70;;;1.57;;
20478;SDS011;10398;52.490;13.434;2022-10-16T06:06:17;3.60;;;2.33;;
20478;SDS011;10398;52.490;13.434;2022-10-16T06:08:48;2.30;;;1.40;;
20478;SDS011;10398;52.490;13.434;2022-10-16T06:11:15;2.70;;;1.60;;
20478;SDS011;10398;52.490;13.434;2022-10-16T06:13:42;2.90;;;1.53;;
20478;SDS011;10398;52.490;13.434;2022-10-16T06:16:08;3.47;;;1.80;;
20478;SDS011;10398;52.490;13.434;2022-10-16T06:18:35;2.53;;;1.73;;
20478;SDS011;10398;52.490;13.434;2022-10-16T06:21:06;3.13;;;1.83;;
20478;SDS011;10398;52.490;13.434;2022-10-16T06:23:36;2.83;;;1.50;;
20478;SDS011;10398;52.490;13.434;2022-10-16T06:26:09;2.67;;;1.73;;
20478;SDS011;10398;52.490;13.434;2022-10-16T06:28:36;2.27;;;1.60;;
20478;SDS011;10398;52.490;13.434;2022-10-16T06:31:03;4.63;;;1.70;;
20478;SDS011;10398;52.490;13.434;2022-10-16T06:33:30;3.00;;;1.40;;
20478;SDS011;10398;52.490;13.434;2022-10-16T06:38:28;2.30;;;1.57;;
20478;SDS011;10398;52.490;13.434;2022-10-16T06:40:55;1.73;;;1.37;;
20478;SDS011;10398;52.490;13.434;2022-10-16T06:43:21;2.90;;;1.30;;
20478;SDS011;10398;52.490;13.434;2022-10-16T06:45:50;3.03;;;2.07;;
20478;SDS011;10398;52.490;13.434;2022-10-16T06:48:20;3.27;;;1.80;;
20478;SDS011;10398;52.490;13.434;2022-10-16T06:53:48;6.53;;;1.90;;
20478;SDS011;10398;52.490;13.434;2022-10-16T06:56:16;2.93;;;1.87;;
20478;SDS011;10398;52.490;13.434;2022-10-16T06:58:43;2.37;;;1.63;;
20478;SDS011;10398;52.490;13.434;2022-10-16T07:01:10;2.97;;;1.70;;
20478;SDS011;10398;52.490;13.434;2022-10-16T07:03:37;2.07;;;1.40;;
20478;SDS011;10398;52.490;13.434;2022-10-16T07:06:07;2.67;;;1.30;;
20478;SDS011;10398;52.490;13.434;2022-10-16T07:08:34;5.60;;;1.60;;
20478;SDS011;10398;52.490;13.434;2022-10-16T07:11:02;3.07;;;1.40;;
20478;SDS011;10398;52.490;13.434;2022-10-16T07:13:29;4.83;;;2.00;;
20478;SDS011;10398;52.490;13.434;2022-10-16T07:15:57;2.60;;;1.50;;
20478;SDS011;10398;52.490;13.434;2022-10-16T07:18:23;3.43;;;1.90;;
20478;SDS011;10398;52.490;13.434;2022-10-16T07:20:51;2.17;;;1.40;;
20478;SDS011;10398;52.490;13.434;2022-10-16T07:23:17;3.67;;;1.50;;
20478;SDS011;10398;52.490;13.434;2022-10-16T07:25:43;7.77;;;2.03;;
20478;SDS011;10398;52.490;13.434;2022-10-16T07:28:08;5.10;;;1.60;;
20478;SDS011;10398;52.490;13.434;2022-10-16T07:30:35;2.67;;;1.50;;
20478;SDS011;10398;52.490;13.434;2022-10-16T07:33:02;3.17;;;1.40;;
20478;SDS011;10398;52.490;13.434;2022-10-16T07:35:28;4.60;;;1.83;;
20478;SDS011;10398;52.490;13.434;2022-10-16T07:37:53;5.00;;;2.20;;
20478;SDS011;10398;52.490;13.434;2022-10-16T07:40:19;3.20;;;1.20;;
20478;SDS011;10398;52.490;13.434;2022-10-16T07:42:44;1.60;;;1.10;;
20478;SDS011;10398;52.490;13.434;2022-10-16T07:45:10;2.43;;;1.40;;
20478;SDS011;10398;52.490;13.434;2022-10-16T07:47:36;2.40;;;1.10;;
20478;SDS011;10398;52.490;13.434;2022-10-16T07:50:01;2.03;;;1.10;;
20478;SDS011;10398;52.490;13.434;2022-10-16T07:52:27;2.80;;;1.00;;
20478;SDS011;10398;52.490;13.434;2022-10-16T07:54:53;3.73;;;1.73;;
20478;SDS011;10398;52.490;13.434;2022-10-16T07:57:18;2.13;;;1.10;;
20478;SDS011;10398;52.490;13.434;2022-10-16T07:59:45;4.33;;;1.47;;
20478;SDS011;10398;52.490;13.434;2022-10-16T08:02:11;1.80;;;1.03;;
20478;SDS011;10398;52.490;13.434;2022-10-16T08:04:37;2.30;;;1.03;;
20478;SDS011;10398;52.490;13.434;2022-10-16T08:07:03;1.60;;;0.83;;
20478;SDS011;10398;52.490;13.434;2022-10-16T08:09:28;3.13;;;1.20;;
20478;SDS011;10398;52.490;13.434;2022-10-16T08:11:54;1.83;;;1.17;;
20478;SDS011;10398;52.490;13.434;2022-10-16T08:14:20;2.83;;;1.40;;
20478;SDS011;10398;52.490;13.434;2022-10-16T08:16:45;4.37;;;2.20;;
20478;SDS011;10398;52.490;13.434;2022-10-16T08:19:11;7.53;;;3.10;;
20478;SDS011;10398;52.490;13.434;2022-10-16T08:21:36;3.97;;;1.90;;
20478;SDS011;10398;52.490;13.434;2022-10-16T08:24:02;16.80;;;3.83;;
20478;SDS011;10398;52.490;13.434;2022-10-16T08:26:28;3.47;;;1.00;;
20478;SDS011;10398;52.490;13.434;2022-10-16T08:28:54;2.83;;;1.17;;
20478;SDS011;10398;52.490;13.434;2022-10-16T08:31:20;2.37;;;0.90;;
20478;SDS011;10398;52.490;13.434;2022-10-16T08:33:46;1.50;;;0.87;;
20478;SDS011;10398;52.490;13.434;2022-10-16T08:36:12;1.90;;;1.00;;
20478;SDS011;10398;52.490;13.434;2022-10-16T08:38:39;1.80;;;1.13;;
20478;SDS011;10398;52.490;13.434;2022-10-16T08:41:20;1.90;;;1.27;;
20478;SDS011;10398;52.490;13.434;2022-10-16T08:49:58;1.47;;;0.80;;
20478;SDS011;10398;52.490;13.434;2022-10-16T08:52:29;1.73;;;0.90;;
20478;SDS011;10398;52.490;13.434;2022-10-16T08:54:57;1.90;;;1.13;;
20478;SDS011;10398;52.490;13.434;2022-10-16T08:57:24;3.77;;;1.50;;
20478;SDS011;10398;52.490;13.434;2022-10-16T08:59:51;1.40;;;1.00;;
20478;SDS011;10398;52.490;13.434;2022-10-16T09:18:31;4.80;;;1.47;;
20478;SDS011;10398;52.490;13.434;2022-10-16T09:24:07;3.57;;;1.80;;
20478;SDS011;10398;52.490;13.434;2022-10-16T09:26:38;3.47;;;1.30;;
20478;SDS011;10398;52.490;13.434;2022-10-16T09:29:03;3.93;;;1.30;;
20478;SDS011;10398;52.490;13.434;2022-10-16T09:31:29;3.43;;;1.30;;
20478;SDS011;10398;52.490;13.434;2022-10-16T09:33:59;4.28;;;1.70;;
20478;SDS011;10398;52.490;13.434;2022-10-16T09:36:29;1.57;;;0.87;;
20478;SDS011;10398;52.490;13.434;2022-10-16T09:39:07;1.57;;;0.70;;
20478;SDS011;10398;52.490;13.434;2022-10-16T09:41:34;1.40;;;0.80;;
20478;SDS011;10398;52.490;13.434;2022-10-16T09:44:02;1.37;;;0.70;;
20478;SDS011;10398;52.490;13.434;2022-10-16T09:46:35;2.65;;;0.80;;
20478;SDS011;10398;52.490;13.434;2022-10-16T09:49:18;2.10;;;0.60;;
20478;SDS011;10398;52.490;13.434;2022-10-16T09:51:49;4.20;;;1.25;;
20478;SDS011;10398;52.490;13.434;2022-10-16T09:54:17;2.45;;;1.08;;
20478;SDS011;10398;52.490;13.434;2022-10-16T09:56:44;5.00;;;1.30;;
20478;SDS011;10398;52.490;13.434;2022-10-16T09:59:12;1.17;;;0.73;;
20478;SDS011;10398;52.490;13.434;2022-10-16T10:01:41;1.55;;;0.85;;
20478;SDS011;10398;52.490;13.434;2022-10-16T10:04:10;1.67;;;0.75;;
20478;SDS011;10398;52.490;13.434;2022-10-16T10:06:44;2.50;;;1.40;;
20478;SDS011;10398;52.490;13.434;2022-10-16T10:09:22;2.10;;;1.25;;
20478;SDS011;10398;52.490;13.434;2022-10-16T10:14:24;1.38;;;0.90;;
20478;SDS011;10398;52.490;13.434;2022-10-16T10:17:12;2.88;;;1.08;;
20478;SDS011;10398;52.490;13.434;2022-10-16T10:19:54;5.25;;;1.48;;
20478;SDS011;10398;52.490;13.434;2022-10-16T10:22:41;2.95;;;1.50;;
20478;SDS011;10398;52.490;13.434;2022-10-16T10:30:10;3.90;;;1.92;;
20478;SDS011;10398;52.490;13.434;2022-10-16T10:33:03;6.10;;;2.67;;
20478;SDS011;10398;52.490;13.434;2022-10-16T10:35:38;4.47;;;2.08;;
20478;SDS011;10398;52.490;13.434;2022-10-16T10:45:54;2.10;;;0.90;;
20478;SDS011;10398;52.490;13.434;2022-10-16T10:48:35;1.48;;;0.80;;
20478;SDS011;10398;52.490;13.434;2022-10-16T10:54:14;2.10;;;0.90;;
20478;SDS011;10398;52.490;13.434;2022-10-16T10:57:02;2.45;;;0.80;;
20478;SDS011;10398;52.490;13.434;2022-10-16T11:02:00;1.00;;;0.80;;
20478;SDS011;10398;52.490;13.434;2022-10-16T11:07:28;2.20;;;0.80;;
20478;SDS011;10398;52.490;13.434;2022-10-16T11:10:04;1.83;;;1.10;;
20478;SDS011;10398;52.490;13.434;2022-10-16T11:12:42;4.13;;;0.70;;
20478;SDS011;10398;52.490;13.434;2022-10-16T11:17:56;1.38;;;0.50;;
20478;SDS011;10398;52.490;13.434;2022-10-16T11:20:37;3.45;;;1.55;;
20478;SDS011;10398;52.490;13.434;2022-10-16T11:23:06;1.90;;;0.70;;
20478;SDS011;10398;52.490;13.434;2022-10-16T11:25:34;3.80;;;1.40;;
20478;SDS011;10398;52.490;13.434;2022-10-16T11:28:06;2.10;;;0.68;;
20478;SDS011;10398;52.490;13.434;2022-10-16T11:35:56;1.88;;;0.50;;
20478;SDS011;10398;52.490;13.434;2022-10-16T11:38:35;1.08;;;0.63;;
20478;SDS011;10398;52.490;13.434;2022-10-16T11:41:15;1.73;;;0.60;;
20478;SDS011;10398;52.490;13.434;2022-10-16T11:43:43;2.17;;;1.10;;
20478;SDS011;10398;52.490;13.434;2022-10-16T11:46:16;2.30;;;0.95;;
20478;SDS011;10398;52.490;13.434;2022-10-16T11:51:33;4.63;;;1.50;;
20478;SDS011;10398;52.490;13.434;2022-10-16T11:54:08;2.38;;;1.00;;
20478;SDS011;10398;52.490;13.434;2022-10-16T11:56:40;2.20;;;1.05;;
20478;SDS011;10398;52.490;13.434;2022-10-16T11:59:24;2.88;;;0.95;;
20478;SDS011;10398;52.490;13.434;2022-10-16T12:02:16;3.20;;;1.30;;
20478;SDS011;10398;52.490;13.434;2022-10-16T12:05:05;5.30;;;2.08;;
20478;SDS011;10398;52.490;13.434;2022-10-16T12:07:55;2.10;;;0.70;;
20478;SDS011;10398;52.490;13.434;2022-10-16T12:10:33;2.45;;;0.70;;
20478;SDS011;10398;52.490;13.434;2022-10-16T12:13:03;0.98;;;0.70;;
20478;SDS011;10398;52.490;13.434;2022-10-16T12:15:31;1.15;;;0.45;;
20478;SDS011;10398;52.490;13.434;2022-10-16T12:17:59;1.25;;;0.60;;
20478;SDS011;10398;52.490;13.434;2022-10-16T12:20:26;1.67;;;0.80;;
20478;SDS011;10398;52.490;13.434;2022-10-16T12:22:56;1.30;;;0.57;;
20478;SDS011;10398;52.490;13.434;2022-10-16T12:25:27;1.75;;;0.60;;
20478;SDS011;10398;52.490;13.434;2022-10-16T12:30:55;4.05;;;0.70;;
20478;SDS011;10398;52.490;13.434;2022-10-16T12:33:25;2.45;;;0.60;;
20478;SDS011;10398;52.490;13.434;2022-10-16T12:35:52;2.63;;;0.80;;
20478;SDS011;10398;52.490;13.434;2022-10-16T12:41:05;6.75;;;1.45;;
20478;SDS011;10398;52.490;13.434;2022-10-16T12:43:46;2.15;;;0.80;;
20478;SDS011;10398;52.490;13.434;2022-10-16T12:48:39;4.70;;;1.00;;
20478;SDS011;10398;52.490;13.434;2022-10-16T12:51:19;5.13;;;1.23;;
20478;SDS011;10398;52.490;13.434;2022-10-16T12:56:25;10.05;;;2.03;;
20478;SDS011;10398;52.490;13.434;2022-10-16T13:01:55;5.35;;;1.05;;
20478;SDS011;10398;52.490;13.434;2022-10-16T13:07:28;9.85;;;2.58;;
20478;SDS011;10398;52.490;13.434;2022-10-16T13:10:10;2.08;;;0.70;;
20478;SDS011;10398;52.490;13.434;2022-10-16T13:16:21;3.88;;;0.88;;
20478;SDS011;10398;52.490;13.434;2022-10-16T13:19:37;13.40;;;3.67;;
20478;SDS011;10398;52.490;13.434;2022-10-16T13:22:11;13.65;;;2.75;;
20478;SDS011;10398;52.490;13.434;2022-10-16T13:30:26;12.23;;;2.60;;
20478;SDS011;10398;52.490;13.434;2022-10-16T13:32:59;5.05;;;0.77;;
20478;SDS011;10398;52.490;13.434;2022-10-16T13:35:30;5.65;;;1.60;;
20478;SDS011;10398;52.490;13.434;2022-10-16T13:38:30;1.02;;;0.70;;
20478;SDS011;10398;52.490;13.434;2022-10-16T13:40:54;5.18;;;1.60;;
20478;SDS011;10398;52.490;13.434;2022-10-16T13:43:28;2.42;;;0.60;;
20478;SDS011;10398;52.490;13.434;2022-10-16T13:46:18;4.05;;;0.80;;
20478;SDS011;10398;52.490;13.434;2022-10-16T13:48:55;5.32;;;1.40;;
20478;SDS011;10398;52.490;13.434;2022-10-16T13:51:22;1.80;;;0.63;;
20478;SDS011;10398;52.490;13.434;2022-10-16T13:53:47;1.00;;;0.60;;
20478;SDS011;10398;52.490;13.434;2022-10-16T13:56:15;9.65;;;1.40;;
20478;SDS011;10398;52.490;13.434;2022-10-16T13:58:43;4.05;;;0.90;;
20478;SDS011;10398;52.490;13.434;2022-10-16T14:04:02;1.85;;;0.80;;
20478;SDS011;10398;52.490;13.434;2022-10-16T14:06:30;2.72;;;0.90;;
20478;SDS011;10398;52.490;13.434;2022-10-16T14:11:33;9.50;;;2.67;;
20478;SDS011;10398;52.490;13.434;2022-10-16T14:14:03;15.05;;;4.15;;
20478;SDS011;10398;52.490;13.434;2022-10-16T14:16:30;4.28;;;1.45;;
20478;SDS011;10398;52.490;13.434;2022-10-16T14:18:58;2.13;;;0.77;;
20478;SDS011;10398;52.490;13.434;2022-10-16T14:21:24;4.35;;;1.35;;
20478;SDS011;10398;52.490;13.434;2022-10-16T14:23:51;3.92;;;1.20;;
20478;SDS011;10398;52.490;13.434;2022-10-16T14:26:19;3.35;;;1.02;;
20478;SDS011;10398;52.490;13.434;2022-10-16T14:28:47;1.77;;;0.70;;
20478;SDS011;10398;52.490;13.434;2022-10-16T14:31:27;3.17;;;1.15;;
20478;SDS011;10398;52.490;13.434;2022-10-16T14:33:58;2.58;;;1.30;;
20478;SDS011;10398;52.490;13.434;2022-10-16T14:36:24;2.35;;;1.10;;
20478;SDS011;10398;52.490;13.434;2022-10-16T14:39:04;6.53;;;1.90;;
20478;SDS011;10398;52.490;13.434;2022-10-16T14:41:45;1.63;;;0.80;;
20478;SDS011;10398;52.490;13.434;2022-10-16T14:44:12;2.53;;;0.90;;
20478;SDS011;10398;52.490;13.434;2022-10-16T14:46:39;6.07;;;1.67;;
20478;SDS011;10398;52.490;13.434;2022-10-16T14:51:39;3.60;;;1.13;;
20478;SDS011;10398;52.490;13.434;2022-10-16T14:54:11;2.20;;;0.88;;
20478;SDS011;10398;52.490;13.434;2022-10-16T14:59:13;4.97;;;1.90;;
20478;SDS011;10398;52.490;13.434;2022-10-16T15:01:45;2.65;;;1.35;;
20478;SDS011;10398;52.490;13.434;2022-10-16T15:04:11;6.28;;;1.60;;
20478;SDS011;10398;52.490;13.434;2022-10-16T15:06:38;4.20;;;1.63;;
20478;SDS011;10398;52.490;13.434;2022-10-16T15:09:03;4.45;;;1.60;;
20478;SDS011;10398;52.490;13.434;2022-10-16T15:11:29;3.35;;;1.00;;
20478;SDS011;10398;52.490;13.434;2022-10-16T15:13:57;4.78;;;1.40;;
20478;SDS011;10398;52.490;13.434;2022-10-16T15:16:23;4.47;;;1.88;;
20478;SDS011;10398;52.490;13.434;2022-10-16T15:18:49;2.80;;;1.50;;
20478;SDS011;10398;52.490;13.434;2022-10-16T15:21:22;2.88;;;1.40;;
20478;SDS011;10398;52.490;13.434;2022-10-16T15:23:53;2.72;;;1.42;;
20478;SDS011;10398;52.490;13.434;2022-10-16T15:26:21;3.15;;;1.30;;
20478;SDS011;10398;52.490;13.434;2022-10-16T15:28:47;2.97;;;1.50;;
20478;SDS011;10398;52.490;13.434;2022-10-16T15:31:13;6.20;;;1.70;;
20478;SDS011;10398;52.490;13.434;2022-10-16T15:33:38;5.82;;;2.03;;
20478;SDS011;10398;52.490;13.434;2022-10-16T15:36:04;4.55;;;1.50;;
20478;SDS011;10398;52.490;13.434;2022-10-16T15:38:30;4.72;;;1.70;;
20478;SDS011;10398;52.490;13.434;2022-10-16T15:40:56;6.55;;;2.60;;
20478;SDS011;10398;52.490;13.434;2022-10-16T15:43:22;3.05;;;1.48;;
20478;SDS011;10398;52.490;13.434;2022-10-16T15:45:58;7.00;;;2.25;;
20478;SDS011;10398;52.490;13.434;2022-10-16T15:48:26;5.63;;;2.08;;
20478;SDS011;10398;52.490;13.434;2022-10-16T15:50:52;7.18;;;2.85;;
20478;SDS011;10398;52.490;13.434;2022-10-16T15:53:17;8.10;;;2.80;;
20478;SDS011;10398;52.490;13.434;2022-10-16T15:55:43;4.80;;;2.67;;
20478;SDS011;10398;52.490;13.434;2022-10-16T15:58:08;8.48;;;3.45;;
20478;SDS011;10398;52.490;13.434;2022-10-16T16:00:34;7.07;;;3.13;;
20478;SDS011;10398;52.490;13.434;2022-10-16T16:03:00;7.53;;;3.42;;
20478;SDS011;10398;52.490;13.434;2022-10-16T16:05:25;7.70;;;3.30;;
20478;SDS011;10398;52.490;13.434;2022-10-16T16:07:52;9.75;;;3.03;;
20478;SDS011;10398;52.490;13.434;2022-10-16T16:10:18;9.52;;;3.97;;
20478;SDS011;10398;52.490;13.434;2022-10-16T16:12:46;9.90;;;3.70;;
20478;SDS011;10398;52.490;13.434;2022-10-16T16:15:16;7.47;;;3.33;;
20478;SDS011;10398;52.490;13.434;2022-10-16T16:17:43;6.32;;;2.70;;
20478;SDS011;10398;52.490;13.434;2022-10-16T16:20:09;4.63;;;2.65;;
20478;SDS011;10398;52.490;13.434;2022-10-16T16:22:35;8.88;;;4.07;;
20478;SDS011;10398;52.490;13.434;2022-10-16T16:25:01;8.93;;;3.47;;
20478;SDS011;10398;52.490;13.434;2022-10-16T16:27:26;10.55;;;3.90;;
20478;SDS011;10398;52.490;13.434;2022-10-16T16:29:54;14.48;;;5.28;;
20478;SDS011;10398;52.490;13.434;2022-10-16T16:32:20;8.85;;;4.78;;
20478;SDS011;10398;52.490;13.434;2022-10-16T16:34:46;8.68;;;4.40;;
20478;SDS011;10398;52.490;13.434;2022-10-16T16:37:11;15.68;;;5.00;;
20478;SDS011;10398;52.490;13.434;2022-10-16T16:39:37;11.52;;;5.18;;
20478;SDS011;10398;52.490;13.434;2022-10-16T16:42:03;9.52;;;4.80;;
20478;SDS011;10398;52.490;13.434;2022-10-16T16:44:31;9.85;;;4.15;;